createdAt,value
2022-09-13T00:01:18.983Z,14.45
2022-09-13T00:03:45.838Z,14.40
2022-09-13T00:06:17.231Z,14.36
2022-09-13T00:08:44.717Z,14.34
2022-09-13T00:11:19.668Z,14.32
2022-09-13T00:13:46.876Z,14.30
2022-09-13T00:16:14.777Z,14.29
2022-09-13T00:18:41.899Z,14.27
2022-09-13T00:21:14.090Z,14.26
2022-09-13T00:23:43.544Z,14.26
2022-09-13T00:26:12.065Z,14.23
2022-09-13T00:28:38.963Z,14.21
2022-09-13T00:31:06.723Z,14.17
2022-09-13T00:33:34.325Z,14.13
2022-09-13T00:36:05.458Z,14.08
2022-09-13T00:38:32.576Z,14.04
2022-09-13T00:40:59.632Z,14.01
2022-09-13T00:43:43.609Z,14.00
2022-09-13T00:46:13.526Z,13.97
2022-09-13T00:48:40.611Z,13.95
2022-09-13T00:51:09.427Z,13.93
2022-09-13T00:53:39.450Z,13.95
2022-09-13T00:56:09.796Z,13.94
2022-09-13T00:58:39.368Z,13.94
2022-09-13T01:01:08.563Z,13.90
2022-09-13T01:03:35.649Z,13.87
2022-09-13T01:06:14.648Z,13.89
2022-09-13T01:08:43.382Z,13.91
2022-09-13T01:11:13.420Z,13.89
2022-09-13T01:13:41.343Z,13.83
2022-09-13T01:16:08.403Z,13.80
2022-09-13T01:18:35.536Z,13.78
2022-09-13T01:21:02.294Z,13.76
2022-09-13T01:23:35.243Z,13.71
2022-09-13T01:26:20.682Z,13.69
2022-09-13T01:29:14.247Z,13.65
2022-09-13T01:31:51.524Z,13.67
2022-09-13T01:34:38.604Z,13.65
2022-09-13T01:37:24.790Z,13.62
2022-09-13T01:39:55.628Z,13.57
2022-09-13T01:42:22.771Z,13.56
2022-09-13T01:44:57.624Z,13.54
2022-09-13T01:47:31.255Z,13.56
2022-09-13T01:50:10.026Z,13.57
2022-09-13T01:52:56.870Z,13.59
2022-09-13T01:55:32.409Z,13.59
2022-09-13T01:58:18.204Z,13.59
2022-09-13T02:00:48.454Z,13.62
2022-09-13T02:03:22.542Z,13.61
2022-09-13T02:05:55.354Z,13.57
2022-09-13T02:08:32.674Z,13.56
2022-09-13T02:11:05.328Z,13.50
2022-09-13T02:13:35.315Z,13.53
2022-09-13T02:16:07.483Z,13.52
2022-09-13T02:18:40.029Z,13.51
2022-09-13T02:21:17.792Z,13.51
2022-09-13T02:23:48.804Z,13.49
2022-09-13T02:26:15.924Z,13.49
2022-09-13T02:28:48.238Z,13.46
2022-09-13T02:31:17.333Z,13.43
2022-09-13T02:33:56.712Z,13.37
2022-09-13T02:36:25.954Z,13.38
2022-09-13T02:38:56.051Z,13.35
2022-09-13T02:41:39.240Z,13.32
2022-09-13T02:44:15.161Z,13.29
2022-09-13T02:46:59.129Z,13.28
2022-09-13T02:49:26.506Z,13.26
2022-09-13T02:51:56.577Z,13.22
2022-09-13T02:54:46.605Z,13.21
2022-09-13T02:57:18.488Z,13.21
2022-09-13T02:59:46.342Z,13.20
2022-09-13T03:02:14.555Z,13.21
2022-09-13T03:04:41.686Z,13.19
2022-09-13T03:07:12.712Z,13.17
2022-09-13T03:09:46.000Z,13.15
2022-09-13T03:12:24.220Z,13.14
2022-09-13T03:14:58.186Z,13.11
2022-09-13T03:17:48.419Z,13.11
2022-09-13T03:20:15.228Z,13.12
2022-09-13T03:22:48.141Z,13.12
2022-09-13T03:25:24.130Z,13.09
2022-09-13T03:28:04.139Z,13.07
2022-09-13T03:30:33.567Z,13.06
2022-09-13T03:33:04.595Z,13.08
2022-09-13T03:35:34.451Z,13.07
2022-09-13T03:38:05.438Z,13.06
2022-09-13T03:40:42.521Z,13.03
2022-09-13T03:43:10.098Z,13.02
2022-09-13T03:45:40.015Z,13.00
2022-09-13T03:48:07.398Z,12.98
2022-09-13T03:50:35.213Z,12.98
2022-09-13T03:53:06.856Z,12.97
2022-09-13T03:55:35.620Z,12.95
2022-09-13T03:58:02.379Z,12.89
2022-09-13T04:02:34.520Z,12.84
2022-09-13T04:05:01.921Z,12.85
2022-09-13T04:07:30.459Z,12.85
2022-09-13T04:09:57.346Z,12.84
2022-09-13T04:12:24.381Z,12.86
2022-09-13T04:14:52.543Z,12.89
2022-09-13T04:17:19.260Z,12.89
2022-09-13T04:19:47.169Z,12.87
2022-09-13T04:22:14.365Z,12.84
2022-09-13T04:24:41.161Z,12.86
2022-09-13T04:27:08.244Z,12.89
2022-09-13T04:29:35.060Z,12.87
2022-09-13T04:32:01.927Z,12.89
2022-09-13T04:34:29.174Z,12.91
2022-09-13T04:36:55.964Z,12.92
2022-09-13T04:39:23.837Z,12.91
2022-09-13T04:41:52.062Z,12.91
2022-09-13T04:44:18.884Z,12.95
2022-09-13T04:46:49.090Z,13.01
2022-09-13T04:49:17.024Z,13.05
2022-09-13T04:51:43.846Z,13.08
2022-09-13T04:54:15.265Z,13.05
2022-09-13T04:56:46.450Z,13.02
2022-09-13T04:59:13.277Z,13.02
2022-09-13T05:01:40.455Z,13.10
2022-09-13T05:04:08.155Z,13.15
2022-09-13T05:06:35.331Z,13.19
2022-09-13T05:09:02.624Z,13.27
2022-09-13T05:11:32.423Z,13.34
2022-09-13T05:14:00.519Z,13.43
2022-09-13T05:16:28.736Z,13.45
2022-09-13T05:18:56.222Z,13.68
2022-09-13T05:21:24.752Z,13.87
2022-09-13T05:23:52.439Z,13.95
2022-09-13T05:27:34.810Z,13.91
2022-09-13T05:30:01.887Z,13.87
2022-09-13T05:32:31.293Z,13.90
2022-09-13T05:34:58.084Z,13.92
2022-09-13T05:37:25.198Z,13.94
2022-09-13T05:40:10.807Z,13.94
2022-09-13T05:42:38.935Z,13.98
2022-09-13T05:45:06.943Z,14.14
2022-09-13T05:47:33.741Z,14.31
2022-09-13T05:50:10.237Z,14.52
2022-09-13T05:52:38.022Z,14.70
2022-09-13T05:55:05.324Z,14.72
2022-09-13T05:57:36.365Z,14.89
2022-09-13T06:00:06.748Z,15.52
2022-09-13T06:02:39.961Z,16.40
2022-09-13T06:05:07.337Z,17.03
2022-09-13T06:07:34.162Z,17.51
2022-09-13T06:10:01.329Z,17.73
2022-09-13T06:12:30.194Z,18.23
2022-09-13T06:14:56.977Z,18.54
2022-09-13T06:17:24.083Z,18.82
2022-09-13T06:19:51.181Z,19.42
2022-09-13T06:22:18.004Z,19.77
2022-09-13T06:24:45.128Z,19.54
2022-09-13T06:27:12.399Z,19.56
2022-09-13T06:29:39.368Z,19.64
2022-09-13T06:32:06.814Z,19.95
2022-09-13T06:34:33.983Z,20.14
2022-09-13T06:37:00.763Z,20.39
2022-09-13T06:39:28.025Z,20.40
2022-09-13T06:41:54.894Z,19.75
2022-09-13T06:44:34.301Z,18.93
2022-09-13T06:47:01.101Z,18.56
2022-09-13T06:49:29.306Z,17.71
2022-09-13T06:51:56.601Z,17.42
2022-09-13T06:54:25.106Z,17.25
2022-09-13T06:56:53.869Z,17.02
2022-09-13T06:59:21.084Z,16.95
2022-09-13T07:01:47.997Z,16.98
2022-09-13T07:04:16.903Z,17.02
2022-09-13T07:06:45.409Z,17.01
2022-09-13T07:09:13.207Z,17.30
2022-09-13T07:11:41.068Z,17.01
2022-09-13T07:14:08.231Z,17.15
2022-09-13T07:16:37.100Z,17.50
2022-09-13T07:19:05.819Z,18.09
2022-09-13T07:21:33.386Z,18.11
2022-09-13T07:24:00.569Z,18.52
2022-09-13T07:26:27.783Z,18.61
2022-09-13T07:28:56.254Z,19.08
2022-09-13T07:31:24.439Z,19.56
2022-09-13T07:33:55.668Z,20.09
2022-09-13T07:36:23.255Z,19.96
2022-09-13T07:38:50.303Z,20.05
2022-09-13T07:41:18.355Z,20.25
2022-09-13T07:44:10.993Z,20.27
2022-09-13T07:46:41.493Z,20.21
2022-09-13T07:49:09.419Z,20.10
2022-09-13T07:51:37.400Z,20.29
2022-09-13T07:54:07.040Z,20.90
2022-09-13T07:56:34.934Z,21.09
2022-09-13T07:59:04.067Z,21.34
2022-09-13T08:01:34.656Z,21.57
2022-09-13T08:04:03.512Z,21.85
2022-09-13T08:06:30.987Z,22.24
2022-09-13T08:08:58.161Z,22.53
2022-09-13T08:11:29.167Z,22.62
2022-09-13T08:13:55.989Z,22.55
2022-09-13T08:16:23.478Z,22.35
2022-09-13T08:18:51.780Z,22.34
2022-09-13T08:21:19.020Z,22.27
2022-09-13T08:23:45.925Z,22.34
2022-09-13T08:26:13.925Z,22.46
2022-09-13T08:28:41.651Z,22.39
2022-09-13T08:31:17.884Z,22.30
2022-09-13T08:33:46.738Z,22.48
2022-09-13T08:36:14.679Z,22.12
2022-09-13T08:38:48.320Z,21.80
2022-09-13T08:41:24.239Z,21.82
2022-09-13T08:43:56.648Z,22.10
2022-09-13T08:46:28.884Z,22.24
2022-09-13T08:48:58.383Z,22.23
2022-09-13T08:51:35.604Z,22.41
2022-09-13T08:54:03.229Z,22.33
2022-09-13T08:56:49.680Z,22.49
2022-09-13T08:59:16.483Z,22.79
2022-09-13T09:01:47.107Z,22.49
2022-09-13T09:04:20.261Z,22.71
2022-09-13T09:06:47.346Z,22.81
2022-09-13T09:09:16.932Z,22.70
2022-09-13T09:11:50.558Z,22.72
2022-09-13T09:14:17.664Z,22.68
2022-09-13T09:16:48.805Z,22.57
2022-09-13T09:19:15.564Z,22.54
2022-09-13T09:21:45.131Z,22.33
2022-09-13T09:24:16.601Z,22.39
2022-09-13T09:26:44.039Z,22.57
2022-09-13T09:29:18.191Z,22.55
2022-09-13T09:32:09.430Z,22.58
2022-09-13T09:34:42.755Z,22.58
2022-09-13T09:37:22.883Z,22.64
2022-09-13T09:39:51.066Z,22.73
2022-09-13T09:42:21.425Z,22.83
2022-09-13T09:44:50.240Z,23.07
2022-09-13T09:47:25.975Z,23.20
2022-09-13T09:50:10.427Z,23.11
2022-09-13T09:52:38.213Z,23.10
2022-09-13T09:55:12.276Z,22.98
2022-09-13T09:57:50.106Z,22.90
2022-09-13T10:00:17.844Z,22.69
2022-09-13T10:02:44.899Z,22.62
2022-09-13T10:05:14.727Z,22.56
2022-09-13T10:07:41.972Z,22.42
2022-09-13T10:10:20.522Z,22.45
2022-09-13T10:12:50.627Z,22.50
2022-09-13T10:15:20.707Z,22.54
2022-09-13T10:18:04.848Z,22.51
2022-09-13T10:20:35.194Z,22.40
2022-09-13T10:23:11.270Z,22.26
2022-09-13T10:25:38.679Z,22.30
2022-09-13T10:28:07.179Z,22.33
2022-09-13T10:30:39.008Z,22.28
2022-09-13T10:33:07.264Z,22.36
2022-09-13T10:35:34.266Z,22.35
2022-09-13T10:38:01.116Z,22.41
2022-09-13T10:40:28.559Z,22.43
2022-09-13T10:42:57.415Z,22.46
2022-09-13T10:45:25.543Z,22.57
2022-09-13T10:48:03.666Z,22.54
2022-09-13T10:50:31.545Z,22.54
2022-09-13T10:52:59.528Z,22.53
2022-09-13T10:55:31.328Z,22.67
2022-09-13T10:58:01.381Z,22.72
2022-09-13T11:00:48.588Z,22.56
2022-09-13T11:03:45.431Z,22.53
2022-09-13T11:06:12.328Z,22.52
2022-09-13T11:08:56.308Z,22.66
2022-09-13T11:11:27.314Z,22.69
2022-09-13T11:13:54.426Z,22.80
2022-09-13T11:16:30.345Z,22.87
2022-09-13T11:19:06.609Z,22.88
2022-09-13T11:21:36.454Z,22.84
2022-09-13T11:24:06.559Z,22.76
2022-09-13T11:26:52.243Z,22.79
2022-09-13T11:29:25.601Z,22.68
2022-09-13T11:32:01.419Z,22.52
2022-09-13T11:34:40.930Z,22.42
2022-09-13T11:37:07.884Z,22.27
2022-09-13T11:39:39.102Z,22.29
2022-09-13T11:42:06.795Z,22.20
2022-09-13T11:44:39.588Z,22.10
2022-09-13T11:47:09.734Z,22.07
2022-09-13T11:49:55.524Z,22.04
2022-09-13T11:52:31.721Z,22.02
2022-09-13T11:55:10.764Z,21.97
2022-09-13T11:57:44.068Z,21.98
2022-09-13T12:00:20.036Z,21.94
2022-09-13T12:03:06.010Z,22.02
2022-09-13T12:05:34.781Z,22.10
2022-09-13T12:08:05.990Z,22.17
2022-09-13T12:10:51.437Z,22.15
2022-09-13T12:13:22.016Z,22.09
2022-09-13T12:15:51.422Z,22.03
2022-09-13T12:18:27.483Z,21.98
2022-09-13T12:20:55.861Z,22.01
2022-09-13T12:23:30.033Z,21.95
2022-09-13T12:26:05.001Z,21.92
2022-09-13T12:28:32.199Z,21.90
2022-09-13T12:31:13.184Z,21.83
2022-09-13T12:33:41.394Z,21.78
2022-09-13T12:36:25.575Z,21.77
2022-09-13T12:38:56.056Z,21.80
2022-09-13T12:41:36.478Z,21.86
2022-09-13T12:44:24.073Z,21.86
2022-09-13T12:46:56.696Z,21.89
2022-09-13T12:49:38.925Z,21.92
2022-09-13T12:52:28.222Z,21.90
2022-09-13T12:55:35.619Z,21.92
2022-09-13T12:58:20.770Z,21.94
2022-09-13T13:01:08.121Z,21.97
2022-09-13T13:03:37.121Z,21.95
2022-09-13T13:06:09.114Z,21.99
2022-09-13T13:08:35.952Z,22.07
2022-09-13T13:11:08.058Z,22.08
2022-09-13T13:13:35.149Z,22.10
2022-09-13T13:16:07.301Z,22.16
2022-09-13T13:18:37.147Z,22.19
2022-09-13T13:21:05.898Z,22.24
2022-09-13T13:23:35.279Z,22.22
2022-09-13T13:26:11.788Z,22.26
2022-09-13T13:28:48.060Z,22.30
2022-09-13T13:31:24.546Z,22.28
2022-09-13T13:33:56.281Z,22.27
2022-09-13T13:36:23.331Z,22.28
2022-09-13T13:38:53.895Z,22.31
2022-09-13T13:41:33.570Z,22.34
2022-09-13T13:44:00.904Z,22.37
2022-09-13T13:46:29.391Z,22.38
2022-09-13T13:48:56.294Z,22.37
2022-09-13T13:51:27.438Z,22.38
2022-09-13T13:53:59.859Z,22.47
2022-09-13T13:56:26.616Z,22.56
2022-09-13T13:59:03.169Z,22.57
2022-09-13T14:01:33.132Z,22.61
2022-09-13T14:04:17.773Z,22.68
2022-09-13T14:06:49.982Z,22.69
2022-09-13T14:09:37.041Z,22.72
2022-09-13T14:12:08.075Z,22.75
2022-09-13T14:14:34.883Z,22.80
2022-09-13T14:17:16.815Z,22.88
2022-09-13T14:19:49.094Z,22.96
2022-09-13T14:22:15.908Z,23.06
2022-09-13T14:24:43.975Z,23.14
2022-09-13T14:27:16.077Z,23.31
2022-09-13T14:29:52.096Z,23.55
2022-09-13T14:32:24.216Z,23.75
2022-09-13T14:34:55.984Z,23.84
2022-09-13T14:37:28.631Z,23.92
2022-09-13T14:39:56.823Z,23.99
2022-09-13T14:42:24.220Z,24.04
2022-09-13T14:44:51.208Z,24.06
2022-09-13T14:47:25.302Z,24.01
2022-09-13T14:49:57.657Z,23.95
2022-09-13T14:52:29.061Z,23.89
2022-09-13T14:54:57.612Z,23.84
2022-09-13T14:57:30.725Z,23.73
2022-09-13T15:00:02.900Z,23.63
2022-09-13T15:02:35.602Z,23.57
2022-09-13T15:05:05.119Z,23.51
2022-09-13T15:07:33.817Z,23.46
2022-09-13T15:10:09.701Z,23.43
2022-09-13T15:12:48.743Z,23.41
2022-09-13T15:15:21.629Z,23.34
2022-09-13T15:17:56.254Z,23.27
2022-09-13T15:20:23.725Z,23.23
2022-09-13T15:22:51.500Z,23.18
2022-09-13T15:25:26.577Z,23.11
2022-09-13T15:27:55.367Z,23.02
2022-09-13T15:30:29.332Z,22.99
2022-09-13T15:33:08.946Z,22.91
2022-09-13T15:35:39.996Z,22.91
2022-09-13T15:38:26.333Z,22.94
2022-09-13T15:41:11.167Z,23.01
2022-09-13T15:43:38.766Z,23.06
2022-09-13T15:46:06.052Z,23.13
2022-09-13T15:48:34.209Z,23.18
2022-09-13T15:51:19.516Z,23.22
2022-09-13T15:54:15.937Z,23.24
2022-09-13T15:56:44.408Z,23.26
2022-09-13T15:59:15.343Z,23.27
2022-09-13T16:01:43.303Z,23.27
2022-09-13T16:04:11.375Z,23.23
2022-09-13T16:06:38.208Z,23.19
2022-09-13T16:09:16.083Z,23.14
2022-09-13T16:11:43.202Z,23.11
2022-09-13T16:14:09.967Z,23.05
2022-09-13T16:16:36.914Z,22.99
2022-09-13T16:19:13.467Z,22.92
2022-09-13T16:21:40.339Z,22.88
2022-09-13T16:24:07.575Z,22.85
2022-09-13T16:26:34.471Z,22.82
2022-09-13T16:29:01.440Z,22.78
2022-09-13T16:31:28.598Z,22.75
2022-09-13T16:33:55.711Z,22.70
2022-09-13T16:36:22.884Z,22.67
2022-09-13T16:38:50.013Z,22.65
2022-09-13T16:41:16.746Z,22.60
2022-09-13T16:43:43.545Z,22.58
2022-09-13T16:46:11.525Z,22.54
2022-09-13T16:48:38.305Z,22.52
2022-09-13T16:51:08.988Z,22.48
2022-09-13T16:53:37.551Z,22.46
2022-09-13T16:56:06.921Z,22.40
2022-09-13T16:58:37.831Z,22.37
2022-09-13T17:01:05.855Z,22.36
2022-09-13T17:03:32.745Z,22.34
2022-09-13T17:06:00.329Z,22.31
2022-09-13T17:08:27.677Z,22.33
2022-09-13T17:10:55.057Z,22.30
2022-09-13T17:13:21.927Z,22.27
2022-09-13T17:15:49.066Z,22.23
2022-09-13T17:18:15.918Z,22.20
2022-09-13T17:20:43.394Z,22.16
2022-09-13T17:23:11.029Z,22.13
2022-09-13T17:25:40.764Z,22.08
2022-09-13T17:28:07.598Z,22.03
2022-09-13T17:30:34.737Z,21.99
2022-09-13T17:33:02.794Z,21.98
2022-09-13T17:35:30.157Z,21.97
2022-09-13T17:37:57.893Z,21.96
2022-09-13T17:40:24.783Z,21.94
2022-09-13T17:42:51.613Z,21.94
2022-09-13T17:45:18.810Z,21.93
2022-09-13T17:47:45.613Z,21.91
2022-09-13T17:50:12.711Z,21.91
2022-09-13T17:52:39.898Z,21.90
2022-09-13T17:55:07.318Z,21.88
2022-09-13T17:57:34.670Z,21.87
2022-09-13T18:00:02.474Z,21.86
2022-09-13T18:02:31.343Z,21.86
2022-09-13T18:04:59.611Z,21.84
2022-09-13T18:07:30.436Z,21.85
2022-09-13T18:09:57.526Z,21.83
2022-09-13T18:12:24.424Z,21.83
2022-09-13T18:14:51.614Z,21.83
2022-09-13T18:17:18.381Z,21.82
2022-09-13T18:19:46.665Z,21.79
2022-09-13T18:22:15.539Z,21.73
2022-09-13T18:24:42.402Z,21.74
2022-09-13T18:27:09.344Z,21.72
2022-09-13T18:29:36.674Z,21.71
2022-09-13T18:32:03.482Z,21.68
2022-09-13T18:34:30.323Z,21.67
2022-09-13T18:36:57.824Z,21.68
2022-09-13T18:39:25.039Z,21.68
2022-09-13T18:41:51.819Z,21.65
2022-09-13T18:44:19.317Z,21.69
2022-09-13T18:46:47.681Z,21.68
2022-09-13T18:49:17.204Z,21.63
2022-09-13T18:51:45.154Z,21.62
2022-09-13T18:54:13.276Z,21.60
2022-09-13T18:56:41.400Z,21.60
2022-09-13T18:59:11.036Z,21.56
2022-09-13T19:01:39.300Z,21.53
2022-09-13T19:04:08.794Z,21.51
2022-09-13T19:06:40.158Z,21.52
2022-09-13T19:09:08.213Z,21.50
2022-09-13T19:11:51.760Z,21.49
2022-09-13T19:14:23.020Z,21.41
2022-09-13T19:16:50.903Z,21.39
2022-09-13T19:19:18.118Z,21.34
2022-09-13T19:21:45.523Z,21.32
2022-09-13T19:24:18.076Z,21.29
2022-09-13T19:26:46.468Z,21.26
2022-09-13T19:29:14.807Z,21.24
2022-09-13T19:31:43.695Z,21.19
2022-09-13T19:34:11.324Z,21.14
2022-09-13T19:36:39.360Z,21.12
2022-09-13T19:39:07.066Z,21.11
2022-09-13T19:41:34.663Z,21.06
2022-09-13T19:44:02.079Z,21.01
2022-09-13T19:46:31.799Z,20.95
2022-09-13T19:49:00.919Z,20.89
2022-09-13T19:51:29.197Z,20.82
2022-09-13T19:53:57.825Z,20.77
2022-09-13T19:56:26.771Z,20.68
2022-09-13T19:58:53.862Z,20.60
2022-09-13T20:01:22.786Z,20.56
2022-09-13T20:03:51.530Z,20.47
2022-09-13T20:06:18.568Z,20.39
2022-09-13T20:08:45.381Z,20.29
2022-09-13T20:11:14.309Z,20.23
2022-09-13T20:13:41.130Z,20.13
2022-09-13T20:16:18.579Z,20.08
2022-09-13T20:18:46.031Z,20.02
2022-09-13T20:21:13.147Z,19.95
2022-09-13T20:23:40.908Z,19.87
2022-09-13T20:26:21.807Z,19.83
2022-09-13T20:28:49.980Z,19.81
2022-09-13T20:31:17.143Z,19.78
2022-09-13T20:33:43.924Z,19.74
2022-09-13T20:36:12.211Z,19.70
2022-09-13T20:38:39.829Z,19.64
2022-09-13T20:41:08.151Z,19.64
2022-09-13T20:43:36.168Z,19.61
2022-09-13T20:46:04.034Z,19.58
2022-09-13T20:48:31.621Z,19.54
2022-09-13T20:50:59.846Z,19.53
2022-09-13T20:53:27.593Z,19.49
2022-09-13T20:55:54.416Z,19.48
2022-09-13T20:58:22.161Z,19.47
2022-09-13T21:00:49.417Z,19.49
2022-09-13T21:03:16.373Z,19.49
2022-09-13T21:05:43.233Z,19.52
2022-09-13T21:08:33.367Z,19.52
2022-09-13T21:11:03.406Z,19.51
2022-09-13T21:13:31.001Z,19.50
2022-09-13T21:16:01.969Z,19.47
2022-09-13T21:18:29.445Z,19.44
2022-09-13T21:20:59.992Z,19.43
2022-09-13T21:23:27.351Z,19.45
2022-09-13T21:25:54.088Z,19.46
2022-09-13T21:28:21.225Z,19.46
2022-09-13T21:30:58.522Z,19.46
2022-09-13T21:33:26.093Z,19.46
2022-09-13T21:35:55.796Z,19.42
2022-09-13T21:38:22.635Z,19.42
2022-09-13T21:41:00.636Z,19.37
2022-09-13T21:43:28.207Z,19.35
2022-09-13T21:46:03.436Z,19.30
2022-09-13T21:48:32.838Z,19.24
2022-09-13T21:51:07.739Z,19.20
2022-09-13T21:53:35.695Z,19.14
2022-09-13T21:56:03.990Z,19.12
2022-09-13T21:58:30.875Z,19.05
2022-09-13T22:01:02.548Z,18.99
2022-09-13T22:03:29.904Z,18.91
2022-09-13T22:05:57.960Z,18.85
2022-09-13T22:08:24.953Z,18.83
2022-09-13T22:10:52.049Z,18.85
2022-09-13T22:13:19.965Z,18.80
2022-09-13T22:15:48.177Z,18.72
2022-09-13T22:18:15.429Z,18.67
2022-09-13T22:20:42.284Z,18.64
2022-09-13T22:23:09.020Z,18.61
2022-09-13T22:25:40.094Z,18.55
2022-09-13T22:28:06.849Z,18.45
2022-09-13T22:30:34.587Z,18.40
2022-09-13T22:33:01.720Z,18.39
2022-09-13T22:35:28.480Z,18.34
2022-09-13T22:37:55.243Z,18.30
2022-09-13T22:40:22.441Z,18.26
2022-09-13T22:42:49.346Z,18.19
2022-09-13T22:45:16.333Z,18.10
2022-09-13T22:47:43.407Z,18.06
2022-09-13T22:50:10.213Z,18.02
2022-09-13T22:52:36.990Z,18.02
2022-09-13T22:55:05.065Z,17.95
2022-09-13T22:57:32.120Z,17.89
2022-09-13T22:59:58.960Z,17.82
2022-09-13T23:02:26.180Z,17.76
2022-09-13T23:04:52.958Z,17.70
2022-09-13T23:07:19.713Z,17.68
2022-09-13T23:09:46.850Z,17.60
2022-09-13T23:12:13.716Z,17.54
2022-09-13T23:14:40.501Z,17.52
2022-09-13T23:17:07.598Z,17.49
2022-09-13T23:19:34.413Z,17.47
2022-09-13T23:22:01.268Z,17.42
2022-09-13T23:24:28.372Z,17.40
2022-09-13T23:26:56.081Z,17.39
2022-09-13T23:29:23.349Z,17.35
2022-09-13T23:31:51.307Z,17.35
2022-09-13T23:34:18.137Z,17.32
2022-09-13T23:36:46.092Z,17.31
2022-09-13T23:39:16.595Z,17.31
2022-09-13T23:41:45.422Z,17.28
2022-09-13T23:44:12.347Z,17.29
2022-09-13T23:46:39.633Z,17.24
2022-09-13T23:49:06.426Z,17.25
2022-09-13T23:51:33.496Z,17.25
2022-09-13T23:54:01.223Z,17.24
2022-09-13T23:56:29.112Z,17.21
2022-09-13T23:58:57.241Z,17.21
